Weather observations for the past three days for
Mobridge, Mobridge Municipal Airport
Metric (Imperial)
Date Time (cdt) Wind (kph) Vis. (km) Weather Sky Cond. Temperature (ºC) Relative Humidity Wind Chill (°C) Heat Index (°C) Pressure Precipitation (cm)
Air Dwpt 6 hour altimeter (cm) sea level (mb) 1 hr 3 hr 6 hr
Max. Min.
04 01:52 W 17 G 35 16.09 A Few Clouds FEW110 14.4 5 53% 74.93 998.2
04 00:52 W 24 G 37 16.09 Fair CLR 14.4 5.6 21.7 10.6 56% 74.93 998.5
03 23:52 W 24 G 37 16.09 Fair CLR 15.6 5 50% 75.01 999.5
03 22:52 SW 20 G 31 16.09 Fair CLR 16.1 4.4 46% 75.06 1000.3
03 21:52 S 7 16.09 A Few Clouds FEW095 12.2 5 62% 75.08 1001.3
03 20:52 SW 11 16.09 Fair CLR 16.1 3.9 44% 75.13 1001.5
03 19:52 SW 11 16.09 Fair CLR 19.4 3.3 35% 75.18 1002.3
03 18:52 W 19 16.09 Fair CLR 21.7 1.7 22.8 18.9 27% 75.29 1003.5
03 17:52 W 20 G 39 16.09 Fair CLR 22.2 1.7 26% 75.34 1004.4
03 16:52 W 20 16.09 Fair CLR 22.2 0.6 24% 75.44 1005.7
03 15:52 W 13 16.09 Fair CLR 21.7 0.6 25% 75.54 1007.0
03 14:52 W 15 14.48 Fair CLR 20.6 -0.6 24% 75.64 1008.4
03 13:52 W 13 14.48 Fair CLR 20 -1.1 24% 75.72 1009.5
03 12:52 NW 20 G 28 16.09 Fair CLR 19.4 -0.6 19.4 3.9 26% 75.82 1010.7
03 11:52 W 17 16.09 Fair CLR 17.8 -1.7 27% 75.9 1011.6
03 10:52 W 11 16.09 Fair CLR 16.1 0.6 35% 75.92 1012.2
03 09:52 W 9 16.09 Fair CLR 12.2 1.1 47% 75.95 1012.9
03 08:52 W 7 16.09 Fair CLR 8.9 1.7 61% 8 76 1013.4
03 07:52 NW 7 16.09 Fair CLR 7.2 1.7 68% 6 76 1013.2
03 06:52 N 9 16.09 Fair CLR 4.4 0.6 8.9 3.9 77% 2 75.97 1013.0
03 05:52 NW 20 16.09 Fair CLR 6.7 0 63% 3 75.95 1012.4
03 04:52 N 11 16.09 Fair CLR 5 1.1 76% 3 75.92 1012.4
03 03:52 N 13 16.09 Fair CLR 6.7 2.2 73% 4 75.9 1011.9
03 02:52 N 17 16.09 Fair CLR 7.8 2.8 71% 5 75.87 1011.3
03 01:52 N 11 16.09 Fair CLR 8.3 2.2 66% 7 75.87 1011.1
03 00:52 N 11 16.09 Fair CLR 9.4 2.2 21.7 9.4 61% 8 75.84 1011.0
02 23:52 N 15 16.09 Fair CLR 11.1 2.2 55% 75.82 1010.4
02 22:52 N 13 16.09 Fair CLR 11.1 1.7 53% 75.79 1010.5
02 21:52 N 13 16.09 Fair CLR 12.2 1.7 49% 75.77 1010.3
02 20:52 NW 19 16.09 Fair CLR 16.1 0.6 35% 75.72 1009.5
02 19:52 N 26 G 44 16.09 Fair CLR 19.4 0.6 29% 75.64 1008.5
02 18:52 NW 24 16.09 Fair CLR 21.7 2.8 24.4 20 29% 75.64 1008.3
02 17:52 N 28 G 43 16.09 Fair CLR 22.8 2.8 27% 75.64 1008.2
02 16:52 NW 24 16.09 Mostly Cloudy BKN100 21.1 3.9 32% 75.64 1008.3
02 15:52 NW 17 16.09 A Few Clouds FEW110 21.7 2.2 28% 75.67 1008.7
02 14:52 W 20 16.09 Fair CLR 22.2 1.7 26% 75.72 1009.3
02 13:52 SW 22 16.09 Fair CLR 22.2 2.2 27% 75.79 1010.5
02 12:52 SW 26 16.09 Fair CLR 20 0.6 20.6 5 27% 75.87 1011.6
02 11:52 SW 26 G 39 16.09 Fair CLR 19.4 0 27% 75.92 1012.5
02 10:52 SW 28 G 39 16.09 Fair CLR 17.2 -0.6 30% 76.02 1014.1
02 09:52 S 20 16.09 Fair CLR 14.4 0 38% 76.15 1015.8
02 08:52 SW 19 G 35 16.09 Fair CLR 12.2 -0.6 42% 76.17 1016.2
02 07:52 NW 11 16.09 Fair CLR 8.3 -1.1 52% 7 76.23 1016.7
02 06:52 SE 13 16.09 Fair CLR 5 -1.7 8.3 2.8 62% 2 76.2 1016.4
02 05:52 SE 11 16.09 Fair CLR 6.1 -1.7 58% 4 76.23 1016.8
02 04:52 S 15 16.09 Fair CLR 6.7 -1.1 58% 4 76.28 1017.2
02 03:52 SW 11 16.09 Fair CLR 6.7 -1.1 58% 5 76.3 1017.6
02 02:52 E 9 16.09 Fair CLR 5 -1.7 62% 3 76.33 1018.0
02 01:52 SE 6 16.09 Fair CLR 3.3 -1.7 70% 76.38 1019.0
02 00:52 SE 11 16.09 Fair CLR 3.3 -0.6 15.6 2.2 76% 1 76.38 1019.1
01 23:52 SE 11 16.09 Fair CLR 5 -1.1 65% 3 76.38 1019.2
01 22:52 E 7 16.09 Fair CLR 2.8 -1.7 73% 1 76.4 1019.7
01 21:52 Calm 16.09 Fair CLR 2.8 -2.2 70% 76.38 1019.6
01 20:52 Calm 16.09 Fair CLR 6.1 -0.6 63% 76.35 1019.2
01 19:52 N 6 16.09 Fair CLR 14.4 -1.7 33% 76.33 1018.6
01 18:52 N 17 16.09 Fair CLR 15.6 -3.3 16.1 11.7 27% 76.33 1018.8
01 17:52 N 17 16.09 Fair CLR 16.1 -2.8 27% 76.35 1018.8
01 16:52 N 22 16.09 Fair CLR 16.1 -2.8 27% 76.35 1019.0
01 15:52 N 15 16.09 A Few Clouds FEW070 15 -2.2 31% 76.38 1019.5
01 14:52 NE 15 16.09 A Few Clouds FEW065 14.4 -1.7 33% 76.4 1019.9
01 13:52 Calm 16.09 Fair CLR 13.3 -1.7 36% 76.43 1019.9
01 12:52 Vrbl 11 16.09 Fair CLR 12.8 -2.2 12.8 -5 36% 76.45 1020.4
01 11:52 W 9 16.09 Fair CLR 10.6 -2.2 41% 76.48 1020.7
01 10:52 Vrbl 9 16.09 Fair CLR 8.9 -0.6 52% 8 76.5 1020.9
01 09:52 Calm 16.09 Fair CLR 5 -1.1 65% 76.5 1021.3
01 08:52 Calm 16.09 Fair CLR 2.8 -1.1 76% 76.5 1021.5
01 07:52 Calm 16.09 Fair CLR -0.6 -2.2 89% 76.48 1021.1
01 06:52 Calm 16.09 Fair CLR -4.4 -4.4 0 -5.6 100% 76.48 1021.1
01 05:52 N 7 16.09 Fair CLR -3.3 -3.9 96% -6 76.48 1021.0
01 04:52 N 11 16.09 Fair CLR -4.4 -4.4 100% -8 76.48 1021.0
01 03:52 Calm 16.09 Fair CLR -4.4 -5.6 91% 76.48 1020.9
01 02:52 Calm 16.09 Fair CLR -4.4 -6.1 88% 76.45 1020.8
Date Time (cdt) Wind (kph) Vis. (km) Weather Sky Cond. Air Dwpt Max. Min. Relative Humidity Wind Chill (°C) Heat Index (°C) altimeter (cm) sea level (mb) 1 hr 3 hr 6 hr
6 hour
Temperature (ºC) Pressure Precipitation (cm)